Kakuwamaru — JD4224 — position and weather

sailwx.info

Track history (hours):
 
Tides and Currents Weather Stations Pressure Air Temp Water Temp Dewpoint Dewpoint Depression Visibility Wind Speed Wind Dir Waves Ship Positions

Kakuwamaru

Last reported at 2017-Nov-17 05:27 UTC. Time now 2017-Nov-18 03:04 UTC.
Position N 34°08' E 134°59'.

Length 67 m; draft 4 m.

Type: Tanker. MMSI: 431009761.

Date/timePositionNaut miles runAvg speedWind from/ knotsBaromVisibWave heightAir tempDewpointWater temp
2017-Nov-17 05:27N 34°08' E 134°59'613.5
2017-Nov-17 04:59N 34°14' E 134°59'2112.4
2017-Nov-17 03:19N 34°30' E 135°14'512.3
2017-Nov-17 02:56N 34°34' E 135°18'511.9
2017-Nov-17 02:30N 34°36' E 135°23'3 1.2
2017-Nov-17 00:04N 34°34' E 135°26'0 0.0
2017-Nov-16 23:58N 34°34' E 135°26'0 0.0
2017-Nov-16 23:30N 34°34' E 135°26'0 0.2
2017-Nov-16 23:00N 34°34' E 135°26'3 6.0
2017-Nov-16 22:30N 34°36' E 135°23'1 2.4
2017-Nov-16 22:00N 34°36' E 135°21'510.5
2017-Nov-16 21:30N 34°32' E 135°17'611.8
2017-Nov-16 21:00N 34°28' E 135°12'612.1
2017-Nov-16 20:30N 34°24' E 135°07'812.4
2017-Nov-16 19:51N 34°18' E 134°60'411.9
2017-Nov-16 19:30N 34°14' E 134°60'611.4
2017-Nov-16 18:59N 34°08' E 135°00'1 0.0
2017-Nov-15 05:16N 34°09' E 134°59'413.7
2017-Nov-15 05:00N 34°12' E 134°59'1912.0
2017-Nov-15 03:24N 34°28' E 135°11'512.1
2017-Nov-15 03:00N 34°32' E 135°16'611.9
2017-Nov-15 02:30N 34°35' E 135°21'4 7.0
2017-Nov-15 01:58N 34°34' E 135°26'0 0.3
2017-Nov-15 01:30N 34°34' E 135°26'0 0.0
2017-Nov-15 01:00N 34°34' E 135°26'0 0.0
2017-Nov-15 00:30N 34°34' E 135°26'0 0.0
2017-Nov-15 00:00N 34°34' E 135°26'0 0.0
2017-Nov-14 23:30N 34°34' E 135°26'0 0.0
2017-Nov-14 23:00N 34°34' E 135°26'2 4.6
2017-Nov-14 22:30N 34°36' E 135°24'3 5.1
2017-Nov-14 22:00N 34°35' E 135°21'510.6
2017-Nov-14 21:30N 34°32' E 135°16'611.9
2017-Nov-14 21:00N 34°28' E 135°11'1711.5
2017-Nov-14 19:31N 34°14' E 134°59'011.3
2017-Nov-14 19:29N 34°13' E 134°59'1011.5
2017-Nov-14 18:35N 34°03' E 135°00'  
2017-Nov-12 09:40N 34°58' E 139°20'212.0
2017-Nov-12 09:30N 34°59' E 139°22'612.0
2017-Nov-12 08:59N 35°02' E 139°29'612.1
2017-Nov-12 08:30N 35°05' E 139°35'612.3
2017-Nov-12 08:00N 35°08' E 139°42'612.7
2017-Nov-12 07:30N 35°13' E 139°46'612.5
2017-Nov-12 07:00N 35°19' E 139°43'611.5
2017-Nov-12 06:31N 35°24' E 139°43'612.5
2017-Nov-12 06:00N 35°28' E 139°49'8 1.3
2017-Nov-11 23:27N 35°31' E 139°59'4 2.5
2017-Nov-11 22:00N 35°29' E 139°55'0 0.0
2017-Nov-11 20:45N 35°29' E 139°55'0 0.0
2017-Nov-11 17:42N 35°29' E 139°55'0 0.0
2017-Nov-11 14:48N 35°29' E 139°55'0 0.0
2017-Nov-11 14:18N 35°29' E 139°55'0 0.0
2017-Nov-11 11:48N 35°29' E 139°55'0 0.0
2017-Nov-11 09:48N 35°29' E 139°55'9 8.7
2017-Nov-11 08:47N 35°33' E 140°05'4 1.1
2017-Nov-11 04:33N 35°32' E 139°60'310.1
2017-Nov-11 04:17N 35°31' E 139°57'311.6
2017-Nov-11 04:01N 35°30' E 139°53'611.9
2017-Nov-11 03:30N 35°25' E 139°48'611.8
2017-Nov-11 03:01N 35°20' E 139°45'611.1
2017-Nov-11 02:31N 35°15' E 139°47'612.0
2017-Nov-11 02:01N 35°09' E 139°46'612.3
2017-Nov-11 01:30N 35°04' E 139°42'713.2
2017-Nov-11 01:00N 34°60' E 139°35'234 6.4
2017-Nov-09 12:25N 34°07' E 134°59'613.6
2017-Nov-09 12:00N 34°13' E 134°59'813.3
2017-Nov-09 11:25N 34°21' E 134°60'1013.1
2017-Nov-09 10:42N 34°27' E 135°08'313.4
2017-Nov-09 10:26N 34°30' E 135°11'613.2
2017-Nov-09 10:00N 34°33' E 135°17'612.4
2017-Nov-09 09:30N 34°36' E 135°23'3 5.8
2017-Nov-09 08:59N 34°34' E 135°26'0 0.0
2017-Nov-09 08:30N 34°34' E 135°26'0 0.0
2017-Nov-09 08:00N 34°34' E 135°26'0 0.0
2017-Nov-09 06:52N 34°34' E 135°26'0 0.0
2017-Nov-09 06:28N 34°34' E 135°26'0 0.0
2017-Nov-09 05:58N 34°34' E 135°26'3 5.5
2017-Nov-09 05:27N 34°36' E 135°23'0 0.3
2017-Nov-09 05:00N 34°36' E 135°23'0 0.3
2017-Nov-09 04:13N 34°36' E 135°23'0 0.1
2017-Nov-09 03:31N 34°36' E 135°23'0 0.0
2017-Nov-09 03:25N 34°36' E 135°23'0 0.1
2017-Nov-09 02:55N 34°36' E 135°23'0 1.0
2017-Nov-09 02:30N 34°36' E 135°23'611.7
2017-Nov-09 02:00N 34°32' E 135°17'611.9
2017-Nov-09 01:30N 34°28' E 135°12'1412.4
2017-Nov-09 00:22N 34°18' E 134°60'512.4
2017-Nov-08 23:59N 34°13' E 134°60'  
Track history (hours):
 
Tides and Currents Weather Stations Pressure Air Temp Water Temp Dewpoint Dewpoint Depression Visibility Wind Speed Wind Dir Waves Ship Positions

Kakuwamaru

Last reported at 2017-Nov-17 05:27 UTC. Time now 2017-Nov-18 03:04 UTC.
Position N 34°08' E 134°59'.

Length 67 m; draft 4 m.

Type: Tanker. MMSI: 431009761.

Date/timePositionNaut miles runAvg speedWind from/ knotsBaromVisibWave heightAir tempDewpointWater temp
2017-Nov-17 05:27N 34°08' E 134°59'613.5
2017-Nov-17 04:59N 34°14' E 134°59'2112.4
2017-Nov-17 03:19N 34°30' E 135°14'512.3
2017-Nov-17 02:56N 34°34' E 135°18'511.9
2017-Nov-17 02:30N 34°36' E 135°23'3 1.2
2017-Nov-17 00:04N 34°34' E 135°26'0 0.0
2017-Nov-16 23:58N 34°34' E 135°26'0 0.0
2017-Nov-16 23:30N 34°34' E 135°26'0 0.2
2017-Nov-16 23:00N 34°34' E 135°26'3 6.0
2017-Nov-16 22:30N 34°36' E 135°23'1 2.4
2017-Nov-16 22:00N 34°36' E 135°21'510.5
2017-Nov-16 21:30N 34°32' E 135°17'611.8
2017-Nov-16 21:00N 34°28' E 135°12'612.1
2017-Nov-16 20:30N 34°24' E 135°07'812.4
2017-Nov-16 19:51N 34°18' E 134°60'411.9
2017-Nov-16 19:30N 34°14' E 134°60'611.4
2017-Nov-16 18:59N 34°08' E 135°00'1 0.0
2017-Nov-15 05:16N 34°09' E 134°59'413.7
2017-Nov-15 05:00N 34°12' E 134°59'1912.0
2017-Nov-15 03:24N 34°28' E 135°11'512.1
2017-Nov-15 03:00N 34°32' E 135°16'611.9
2017-Nov-15 02:30N 34°35' E 135°21'4 7.0
2017-Nov-15 01:58N 34°34' E 135°26'0 0.3
2017-Nov-15 01:30N 34°34' E 135°26'0 0.0
2017-Nov-15 01:00N 34°34' E 135°26'0 0.0
2017-Nov-15 00:30N 34°34' E 135°26'0 0.0
2017-Nov-15 00:00N 34°34' E 135°26'0 0.0
2017-Nov-14 23:30N 34°34' E 135°26'0 0.0
2017-Nov-14 23:00N 34°34' E 135°26'2 4.6
2017-Nov-14 22:30N 34°36' E 135°24'3 5.1
2017-Nov-14 22:00N 34°35' E 135°21'510.6
2017-Nov-14 21:30N 34°32' E 135°16'611.9
2017-Nov-14 21:00N 34°28' E 135°11'1711.5
2017-Nov-14 19:31N 34°14' E 134°59'011.3
2017-Nov-14 19:29N 34°13' E 134°59'1011.5
2017-Nov-14 18:35N 34°03' E 135°00'  
2017-Nov-12 09:40N 34°58' E 139°20'212.0
2017-Nov-12 09:30N 34°59' E 139°22'612.0
2017-Nov-12 08:59N 35°02' E 139°29'612.1
2017-Nov-12 08:30N 35°05' E 139°35'612.3
2017-Nov-12 08:00N 35°08' E 139°42'612.7
2017-Nov-12 07:30N 35°13' E 139°46'612.5
2017-Nov-12 07:00N 35°19' E 139°43'611.5
2017-Nov-12 06:31N 35°24' E 139°43'612.5
2017-Nov-12 06:00N 35°28' E 139°49'8 1.3
2017-Nov-11 23:27N 35°31' E 139°59'4 2.5
2017-Nov-11 22:00N 35°29' E 139°55'0 0.0
2017-Nov-11 20:45N 35°29' E 139°55'0 0.0
2017-Nov-11 17:42N 35°29' E 139°55'0 0.0
2017-Nov-11 14:48N 35°29' E 139°55'0 0.0
2017-Nov-11 14:18N 35°29' E 139°55'0 0.0
2017-Nov-11 11:48N 35°29' E 139°55'0 0.0
2017-Nov-11 09:48N 35°29' E 139°55'9 8.7
2017-Nov-11 08:47N 35°33' E 140°05'4 1.1
2017-Nov-11 04:33N 35°32' E 139°60'310.1
2017-Nov-11 04:17N 35°31' E 139°57'311.6
2017-Nov-11 04:01N 35°30' E 139°53'611.9
2017-Nov-11 03:30N 35°25' E 139°48'611.8
2017-Nov-11 03:01N 35°20' E 139°45'611.1
2017-Nov-11 02:31N 35°15' E 139°47'612.0
2017-Nov-11 02:01N 35°09' E 139°46'612.3
2017-Nov-11 01:30N 35°04' E 139°42'713.2
2017-Nov-11 01:00N 34°60' E 139°35'234 6.4
2017-Nov-09 12:25N 34°07' E 134°59'613.6
2017-Nov-09 12:00N 34°13' E 134°59'813.3
2017-Nov-09 11:25N 34°21' E 134°60'1013.1
2017-Nov-09 10:42N 34°27' E 135°08'313.4
2017-Nov-09 10:26N 34°30' E 135°11'613.2
2017-Nov-09 10:00N 34°33' E 135°17'612.4
2017-Nov-09 09:30N 34°36' E 135°23'3 5.8
2017-Nov-09 08:59N 34°34' E 135°26'0 0.0
2017-Nov-09 08:30N 34°34' E 135°26'0 0.0
2017-Nov-09 08:00N 34°34' E 135°26'0 0.0
2017-Nov-09 06:52N 34°34' E 135°26'0 0.0
2017-Nov-09 06:28N 34°34' E 135°26'0 0.0
2017-Nov-09 05:58N 34°34' E 135°26'3 5.5
2017-Nov-09 05:27N 34°36' E 135°23'0 0.3
2017-Nov-09 05:00N 34°36' E 135°23'0 0.3
2017-Nov-09 04:13N 34°36' E 135°23'0 0.1
2017-Nov-09 03:31N 34°36' E 135°23'0 0.0
2017-Nov-09 03:25N 34°36' E 135°23'0 0.1
2017-Nov-09 02:55N 34°36' E 135°23'0 1.0
2017-Nov-09 02:30N 34°36' E 135°23'611.7
2017-Nov-09 02:00N 34°32' E 135°17'611.9
2017-Nov-09 01:30N 34°28' E 135°12'1412.4
2017-Nov-09 00:22N 34°18' E 134°60'512.4
2017-Nov-08 23:59N 34°13' E 134°60'  

Dump ship's entire track history